sensor_id;sensor_type;location;lat;lon;timestamp;pressure;altitude;pressure_sealevel;temperature;humidity
78590;BME280;67888;50.228;7.828;2024-03-23T00:53:45;98337.50;;;7.10;100.00
78590;BME280;67888;50.228;7.828;2024-03-23T00:58:45;98328.31;;;7.28;100.00
78590;BME280;67888;50.228;7.828;2024-03-23T01:03:46;98334.94;;;7.74;100.00
78590;BME280;67888;50.228;7.828;2024-03-23T01:08:47;98322.31;;;7.27;100.00
78590;BME280;67888;50.228;7.828;2024-03-23T01:13:47;98315.34;;;7.72;100.00
78590;BME280;67888;50.228;7.828;2024-03-23T01:18:48;98313.13;;;7.94;100.00
78590;BME280;67888;50.228;7.828;2024-03-23T01:23:48;98311.22;;;7.55;100.00
78590;BME280;67888;50.228;7.828;2024-03-23T01:28:49;98311.81;;;7.97;100.00
78590;BME280;67888;50.228;7.828;2024-03-23T01:33:50;98296.84;;;7.53;100.00
78590;BME280;67888;50.228;7.828;2024-03-23T01:38:50;98285.66;;;7.32;100.00
78590;BME280;67888;50.228;7.828;2024-03-23T01:43:55;98275.88;;;7.58;100.00
78590;BME280;67888;50.228;7.828;2024-03-23T01:48:55;98279.00;;;8.04;100.00
78590;BME280;67888;50.228;7.828;2024-03-23T01:53:56;98267.50;;;8.00;100.00
78590;BME280;67888;50.228;7.828;2024-03-23T01:58:57;98261.56;;;7.35;100.00
78590;BME280;67888;50.228;7.828;2024-03-23T02:03:57;98261.88;;;7.78;100.00
78590;BME280;67888;50.228;7.828;2024-03-23T02:08:58;98261.97;;;7.63;100.00
78590;BME280;67888;50.228;7.828;2024-03-23T02:13:59;98238.06;;;8.13;100.00
78590;BME280;67888;50.228;7.828;2024-03-23T02:19:00;98229.03;;;8.30;100.00
78590;BME280;67888;50.228;7.828;2024-03-23T02:24:00;98241.31;;;8.00;100.00
78590;BME280;67888;50.228;7.828;2024-03-23T02:29:01;98235.06;;;8.30;100.00
78590;BME280;67888;50.228;7.828;2024-03-23T02:34:01;98240.75;;;8.42;100.00
78590;BME280;67888;50.228;7.828;2024-03-23T02:39:02;98251.34;;;8.32;100.00
78590;BME280;67888;50.228;7.828;2024-03-23T02:44:03;98248.19;;;8.25;100.00
78590;BME280;67888;50.228;7.828;2024-03-23T02:49:03;98252.84;;;8.67;100.00
78590;BME280;67888;50.228;7.828;2024-03-23T02:54:04;98255.78;;;8.32;100.00
78590;BME280;67888;50.228;7.828;2024-03-23T02:59:05;98236.75;;;8.16;100.00
78590;BME280;67888;50.228;7.828;2024-03-23T03:04:06;98242.84;;;8.06;100.00
78590;BME280;67888;50.228;7.828;2024-03-23T03:09:06;98230.69;;;8.20;100.00
78590;BME280;67888;50.228;7.828;2024-03-23T03:14:07;98237.53;;;8.16;100.00
78590;BME280;67888;50.228;7.828;2024-03-23T03:19:08;98261.38;;;8.15;100.00
78590;BME280;67888;50.228;7.828;2024-03-23T03:24:09;98265.66;;;8.01;100.00
78590;BME280;67888;50.228;7.828;2024-03-23T03:29:10;98260.41;;;8.06;100.00
78590;BME280;67888;50.228;7.828;2024-03-23T03:34:11;98254.38;;;8.05;100.00
78590;BME280;67888;50.228;7.828;2024-03-23T03:39:12;98273.25;;;8.02;100.00
78590;BME280;67888;50.228;7.828;2024-03-23T03:44:12;98281.19;;;7.87;100.00
78590;BME280;67888;50.228;7.828;2024-03-23T03:49:13;98280.94;;;7.88;100.00
78590;BME280;67888;50.228;7.828;2024-03-23T03:54:13;98272.28;;;7.88;100.00
78590;BME280;67888;50.228;7.828;2024-03-23T03:59:15;98283.56;;;7.88;100.00
78590;BME280;67888;50.228;7.828;2024-03-23T04:04:15;98284.09;;;7.85;100.00
78590;BME280;67888;50.228;7.828;2024-03-23T04:09:16;98276.56;;;7.74;100.00
78590;BME280;67888;50.228;7.828;2024-03-23T04:14:17;98285.56;;;7.52;100.00
78590;BME280;67888;50.228;7.828;2024-03-23T04:19:17;98296.31;;;7.56;100.00
78590;BME280;67888;50.228;7.828;2024-03-23T04:24:18;98287.97;;;7.44;100.00
78590;BME280;67888;50.228;7.828;2024-03-23T04:29:21;98306.25;;;7.49;100.00
78590;BME280;67888;50.228;7.828;2024-03-23T04:34:22;98309.69;;;7.44;100.00
78590;BME280;67888;50.228;7.828;2024-03-23T04:39:23;98323.56;;;7.40;100.00
78590;BME280;67888;50.228;7.828;2024-03-23T04:44:23;98351.13;;;7.02;100.00
78590;BME280;67888;50.228;7.828;2024-03-23T04:49:24;98358.47;;;6.69;100.00
78590;BME280;67888;50.228;7.828;2024-03-23T04:54:25;98366.00;;;6.25;100.00
78590;BME280;67888;50.228;7.828;2024-03-23T04:59:26;98357.94;;;6.32;100.00
78590;BME280;67888;50.228;7.828;2024-03-23T05:04:27;98356.09;;;6.32;100.00
78590;BME280;67888;50.228;7.828;2024-03-23T05:09:27;98387.41;;;6.22;100.00
78590;BME280;67888;50.228;7.828;2024-03-23T05:14:30;98397.31;;;6.15;100.00
78590;BME280;67888;50.228;7.828;2024-03-23T05:19:30;98390.56;;;6.24;100.00
78590;BME280;67888;50.228;7.828;2024-03-23T05:24:31;98400.94;;;6.09;100.00
78590;BME280;67888;50.228;7.828;2024-03-23T05:29:31;98405.13;;;6.05;100.00
78590;BME280;67888;50.228;7.828;2024-03-23T05:34:32;98415.84;;;6.03;100.00
78590;BME280;67888;50.228;7.828;2024-03-23T05:39:32;98409.81;;;6.03;100.00
78590;BME280;67888;50.228;7.828;2024-03-23T05:44:33;98422.59;;;5.94;100.00
78590;BME280;67888;50.228;7.828;2024-03-23T05:49:33;98415.34;;;6.06;100.00
78590;BME280;67888;50.228;7.828;2024-03-23T05:54:34;98438.31;;;6.04;100.00
78590;BME280;67888;50.228;7.828;2024-03-23T05:59:35;98431.47;;;5.98;100.00
78590;BME280;67888;50.228;7.828;2024-03-23T06:04:36;98456.44;;;5.79;100.00
78590;BME280;67888;50.228;7.828;2024-03-23T06:09:36;98475.66;;;6.10;100.00
78590;BME280;67888;50.228;7.828;2024-03-23T06:14:37;98491.66;;;5.76;100.00
78590;BME280;67888;50.228;7.828;2024-03-23T06:19:37;98489.25;;;5.70;100.00
78590;BME280;67888;50.228;7.828;2024-03-23T06:24:38;98488.38;;;5.96;100.00
78590;BME280;67888;50.228;7.828;2024-03-23T06:29:38;98490.75;;;5.98;100.00
78590;BME280;67888;50.228;7.828;2024-03-23T06:34:41;98497.56;;;6.09;100.00
78590;BME280;67888;50.228;7.828;2024-03-23T06:39:42;98513.03;;;6.16;100.00
78590;BME280;67888;50.228;7.828;2024-03-23T06:44:43;98515.19;;;6.34;100.00
78590;BME280;67888;50.228;7.828;2024-03-23T06:49:44;98524.56;;;6.20;100.00
78590;BME280;67888;50.228;7.828;2024-03-23T06:54:44;98537.69;;;6.40;100.00
78590;BME280;67888;50.228;7.828;2024-03-23T06:59:46;98550.34;;;6.06;100.00
78590;BME280;67888;50.228;7.828;2024-03-23T07:04:47;98559.06;;;6.27;100.00
78590;BME280;67888;50.228;7.828;2024-03-23T07:09:47;98578.88;;;6.18;100.00
78590;BME280;67888;50.228;7.828;2024-03-23T07:14:48;98579.66;;;6.18;100.00
78590;BME280;67888;50.228;7.828;2024-03-23T07:19:48;98588.41;;;6.44;100.00
78590;BME280;67888;50.228;7.828;2024-03-23T07:24:49;98586.97;;;6.73;100.00
78590;BME280;67888;50.228;7.828;2024-03-23T07:29:50;98587.97;;;6.62;100.00
78590;BME280;67888;50.228;7.828;2024-03-23T07:34:50;98580.72;;;6.79;100.00
78590;BME280;67888;50.228;7.828;2024-03-23T07:39:51;98579.44;;;6.92;100.00
78590;BME280;67888;50.228;7.828;2024-03-23T07:44:52;98585.94;;;6.79;100.00
78590;BME280;67888;50.228;7.828;2024-03-23T07:49:54;98602.69;;;6.83;100.00
78590;BME280;67888;50.228;7.828;2024-03-23T07:54:55;98593.91;;;7.25;100.00
78590;BME280;67888;50.228;7.828;2024-03-23T07:59:55;98599.63;;;7.22;100.00
78590;BME280;67888;50.228;7.828;2024-03-23T08:04:56;98609.53;;;7.00;100.00
78590;BME280;67888;50.228;7.828;2024-03-23T08:09:57;98611.13;;;7.06;100.00
78590;BME280;67888;50.228;7.828;2024-03-23T08:14:59;98620.63;;;7.52;100.00
78590;BME280;67888;50.228;7.828;2024-03-23T08:20:00;98626.94;;;7.67;100.00
78590;BME280;67888;50.228;7.828;2024-03-23T08:25:00;98616.97;;;7.43;100.00
78590;BME280;67888;50.228;7.828;2024-03-23T08:30:01;98619.31;;;7.60;100.00
78590;BME280;67888;50.228;7.828;2024-03-23T08:35:03;98612.53;;;7.84;100.00
78590;BME280;67888;50.228;7.828;2024-03-23T08:40:04;98607.53;;;8.18;100.00
78590;BME280;67888;50.228;7.828;2024-03-23T08:45:05;98609.09;;;7.99;100.00
78590;BME280;67888;50.228;7.828;2024-03-23T08:50:08;98612.22;;;8.42;100.00
78590;BME280;67888;50.228;7.828;2024-03-23T08:55:08;98609.84;;;8.40;100.00
78590;BME280;67888;50.228;7.828;2024-03-23T09:00:10;98614.13;;;8.90;100.00
78590;BME280;67888;50.228;7.828;2024-03-23T09:05:11;98604.81;;;9.91;100.00
78590;BME280;67888;50.228;7.828;2024-03-23T09:10:12;98613.03;;;9.85;100.00
78590;BME280;67888;50.228;7.828;2024-03-23T09:15:12;98614.00;;;9.89;100.00
78590;BME280;67888;50.228;7.828;2024-03-23T09:20:13;98613.59;;;8.93;100.00
78590;BME280;67888;50.228;7.828;2024-03-23T09:25:13;98611.22;;;9.46;100.00
78590;BME280;67888;50.228;7.828;2024-03-23T09:30:14;98598.31;;;9.11;100.00
78590;BME280;67888;50.228;7.828;2024-03-23T09:35:15;98605.88;;;9.56;100.00
78590;BME280;67888;50.228;7.828;2024-03-23T09:40:15;98594.28;;;9.62;100.00
78590;BME280;67888;50.228;7.828;2024-03-23T09:45:28;98609.13;;;9.38;100.00
78590;BME280;67888;50.228;7.828;2024-03-23T09:50:28;98610.16;;;8.03;100.00
78590;BME280;67888;50.228;7.828;2024-03-23T09:55:29;98622.47;;;8.23;100.00
78590;BME280;67888;50.228;7.828;2024-03-23T10:00:30;98617.75;;;8.20;100.00
78590;BME280;67888;50.228;7.828;2024-03-23T10:05:30;98618.97;;;8.63;100.00
78590;BME280;67888;50.228;7.828;2024-03-23T10:10:37;98629.41;;;8.83;100.00
78590;BME280;67888;50.228;7.828;2024-03-23T10:15:37;98627.25;;;8.95;100.00
78590;BME280;67888;50.228;7.828;2024-03-23T10:20:38;98628.63;;;9.32;100.00
78590;BME280;67888;50.228;7.828;2024-03-23T10:25:38;98631.91;;;9.04;100.00
78590;BME280;67888;50.228;7.828;2024-03-23T10:30:39;98634.09;;;8.86;100.00
78590;BME280;67888;50.228;7.828;2024-03-23T10:35:40;98633.09;;;8.72;100.00
78590;BME280;67888;50.228;7.828;2024-03-23T10:40:41;98631.84;;;9.14;100.00
78590;BME280;67888;50.228;7.828;2024-03-23T10:45:42;98633.28;;;8.96;100.00
78590;BME280;67888;50.228;7.828;2024-03-23T10:50:43;98613.13;;;9.30;100.00
78590;BME280;67888;50.228;7.828;2024-03-23T10:55:43;98610.44;;;9.41;100.00
78590;BME280;67888;50.228;7.828;2024-03-23T11:00:44;98596.78;;;9.78;100.00
78590;BME280;67888;50.228;7.828;2024-03-23T11:05:51;98600.00;;;9.69;100.00
78590;BME280;67888;50.228;7.828;2024-03-23T11:10:52;98588.31;;;9.86;100.00
78590;BME280;67888;50.228;7.828;2024-03-23T11:15:53;98584.31;;;10.46;100.00
78590;BME280;67888;50.228;7.828;2024-03-23T11:20:54;98572.47;;;10.67;100.00
78590;BME280;67888;50.228;7.828;2024-03-23T11:25:55;98586.78;;;10.09;100.00
78590;BME280;67888;50.228;7.828;2024-03-23T11:30:55;98580.91;;;10.46;100.00
78590;BME280;67888;50.228;7.828;2024-03-23T11:35:56;98589.19;;;10.76;100.00
78590;BME280;67888;50.228;7.828;2024-03-23T11:41:02;98572.50;;;9.62;100.00
78590;BME280;67888;50.228;7.828;2024-03-23T11:46:18;98553.56;;;10.65;100.00
78590;BME280;67888;50.228;7.828;2024-03-23T11:51:43;98566.66;;;10.89;100.00
78590;BME280;67888;50.228;7.828;2024-03-23T11:56:57;98554.72;;;10.35;100.00
78590;BME280;67888;50.228;7.828;2024-03-23T12:01:58;98555.28;;;10.32;100.00
78590;BME280;67888;50.228;7.828;2024-03-23T12:07:13;98550.50;;;9.82;100.00
78590;BME280;67888;50.228;7.828;2024-03-23T12:12:16;98558.34;;;9.53;100.00
78590;BME280;67888;50.228;7.828;2024-03-23T12:17:17;98574.38;;;9.12;100.00
78590;BME280;67888;50.228;7.828;2024-03-23T12:22:22;98667.03;;;6.90;100.00
78590;BME280;67888;50.228;7.828;2024-03-23T12:27:24;98680.44;;;6.51;100.00
78590;BME280;67888;50.228;7.828;2024-03-23T12:32:24;98694.97;;;4.81;100.00
78590;BME280;67888;50.228;7.828;2024-03-23T12:37:32;98713.66;;;4.39;100.00
78590;BME280;67888;50.228;7.828;2024-03-23T12:42:37;98692.06;;;4.99;100.00
78590;BME280;67888;50.228;7.828;2024-03-23T12:47:39;98667.88;;;5.52;100.00
78590;BME280;67888;50.228;7.828;2024-03-23T12:52:42;98641.38;;;6.34;100.00
78590;BME280;67888;50.228;7.828;2024-03-23T12:57:43;98642.38;;;6.70;100.00
78590;BME280;67888;50.228;7.828;2024-03-23T13:02:44;98642.13;;;6.25;100.00
78590;BME280;67888;50.228;7.828;2024-03-23T13:07:45;98634.09;;;6.83;100.00
78590;BME280;67888;50.228;7.828;2024-03-23T13:12:45;98632.00;;;6.91;100.00
78590;BME280;67888;50.228;7.828;2024-03-23T13:17:46;98620.31;;;6.51;100.00
78590;BME280;67888;50.228;7.828;2024-03-23T13:22:47;98622.34;;;7.01;100.00
78590;BME280;67888;50.228;7.828;2024-03-23T13:27:48;98622.25;;;6.76;100.00
78590;BME280;67888;50.228;7.828;2024-03-23T13:32:51;98609.34;;;8.43;100.00
78590;BME280;67888;50.228;7.828;2024-03-23T13:37:54;98588.25;;;8.69;100.00
78590;BME280;67888;50.228;7.828;2024-03-23T13:42:55;98573.31;;;9.57;100.00
78590;BME280;67888;50.228;7.828;2024-03-23T13:47:59;98576.94;;;15.02;100.00
78590;BME280;67888;50.228;7.828;2024-03-23T13:53:00;98574.69;;;16.75;82.53
78590;BME280;67888;50.228;7.828;2024-03-23T13:58:02;98576.41;;;18.93;75.23
78590;BME280;67888;50.228;7.828;2024-03-23T14:03:02;98563.88;;;16.80;72.40
78590;BME280;67888;50.228;7.828;2024-03-23T14:08:05;98554.88;;;18.37;67.37
78590;BME280;67888;50.228;7.828;2024-03-23T14:13:06;98546.47;;;16.32;68.69
78590;BME280;67888;50.228;7.828;2024-03-23T14:18:08;98547.09;;;10.58;100.00
78590;BME280;67888;50.228;7.828;2024-03-23T14:23:09;98554.09;;;9.28;100.00
78590;BME280;67888;50.228;7.828;2024-03-23T14:28:20;98563.53;;;8.05;100.00
78590;BME280;67888;50.228;7.828;2024-03-23T14:33:53;98556.41;;;8.11;100.00
78590;BME280;67888;50.228;7.828;2024-03-23T14:39:23;98564.09;;;7.46;100.00
78590;BME280;67888;50.228;7.828;2024-03-23T14:44:25;98573.94;;;6.83;100.00
78590;BME280;67888;50.228;7.828;2024-03-23T14:49:25;98570.44;;;6.63;100.00
78590;BME280;67888;50.228;7.828;2024-03-23T14:54:26;98565.63;;;6.34;100.00
78590;BME280;67888;50.228;7.828;2024-03-23T14:59:27;98555.28;;;6.60;100.00
78590;BME280;67888;50.228;7.828;2024-03-23T15:04:28;98557.91;;;6.65;100.00
78590;BME280;67888;50.228;7.828;2024-03-23T15:09:28;98552.72;;;6.75;100.00
78590;BME280;67888;50.228;7.828;2024-03-23T15:14:29;98565.41;;;7.54;100.00
78590;BME280;67888;50.228;7.828;2024-03-23T15:19:30;98548.09;;;12.02;100.00
78590;BME280;67888;50.228;7.828;2024-03-23T15:24:31;98545.31;;;9.04;100.00
78590;BME280;67888;50.228;7.828;2024-03-23T15:29:32;98544.59;;;14.57;100.00
78590;BME280;67888;50.228;7.828;2024-03-23T15:34:33;98537.13;;;14.59;100.00
78590;BME280;67888;50.228;7.828;2024-03-23T15:39:34;98546.69;;;15.20;100.00
78590;BME280;67888;50.228;7.828;2024-03-23T15:44:35;98537.31;;;13.83;95.14
78590;BME280;67888;50.228;7.828;2024-03-23T15:49:36;98532.72;;;12.72;100.00
78590;BME280;67888;50.228;7.828;2024-03-23T15:54:37;98542.03;;;11.88;100.00
78590;BME280;67888;50.228;7.828;2024-03-23T15:59:41;98515.69;;;9.66;100.00
78590;BME280;67888;50.228;7.828;2024-03-23T16:04:42;98515.59;;;10.05;100.00
78590;BME280;67888;50.228;7.828;2024-03-23T16:09:45;98515.06;;;12.45;100.00
78590;BME280;67888;50.228;7.828;2024-03-23T16:14:46;98500.13;;;11.54;100.00
78590;BME280;67888;50.228;7.828;2024-03-23T16:19:46;98492.41;;;9.25;100.00
78590;BME280;67888;50.228;7.828;2024-03-23T16:24:50;98512.13;;;8.14;100.00
78590;BME280;67888;50.228;7.828;2024-03-23T16:29:50;98505.41;;;7.93;100.00
78590;BME280;67888;50.228;7.828;2024-03-23T16:34:51;98575.00;;;6.93;100.00
78590;BME280;67888;50.228;7.828;2024-03-23T16:39:52;98591.72;;;5.01;100.00
78590;BME280;67888;50.228;7.828;2024-03-23T16:44:52;98589.69;;;4.38;100.00
78590;BME280;67888;50.228;7.828;2024-03-23T16:49:53;98577.44;;;4.60;100.00
78590;BME280;67888;50.228;7.828;2024-03-23T16:54:54;98547.09;;;4.49;100.00
78590;BME280;67888;50.228;7.828;2024-03-23T16:59:54;98529.94;;;5.02;100.00
78590;BME280;67888;50.228;7.828;2024-03-23T17:04:55;98544.78;;;5.92;100.00
78590;BME280;67888;50.228;7.828;2024-03-23T17:09:56;98544.38;;;6.16;100.00
78590;BME280;67888;50.228;7.828;2024-03-23T17:15:03;98544.69;;;5.50;100.00
78590;BME280;67888;50.228;7.828;2024-03-23T17:20:09;98523.50;;;5.42;100.00
78590;BME280;67888;50.228;7.828;2024-03-23T17:25:14;98519.19;;;5.25;100.00
78590;BME280;67888;50.228;7.828;2024-03-23T17:30:14;98528.59;;;5.26;100.00
78590;BME280;67888;50.228;7.828;2024-03-23T17:35:18;98528.78;;;5.52;100.00
78590;BME280;67888;50.228;7.828;2024-03-23T17:40:19;98544.56;;;5.67;100.00
78590;BME280;67888;50.228;7.828;2024-03-23T17:45:22;98553.53;;;5.44;100.00
78590;BME280;67888;50.228;7.828;2024-03-23T17:50:35;98558.41;;;5.09;100.00
78590;BME280;67888;50.228;7.828;2024-03-23T17:55:40;98543.91;;;4.69;100.00
78590;BME280;67888;50.228;7.828;2024-03-23T18:00:41;98559.31;;;5.19;100.00
78590;BME280;67888;50.228;7.828;2024-03-23T18:05:41;98553.84;;;4.94;100.00
78590;BME280;67888;50.228;7.828;2024-03-23T18:10:42;98535.84;;;5.19;100.00
78590;BME280;67888;50.228;7.828;2024-03-23T18:15:43;98539.38;;;4.81;100.00
78590;BME280;67888;50.228;7.828;2024-03-23T18:20:43;98522.13;;;5.02;100.00
78590;BME280;67888;50.228;7.828;2024-03-23T18:25:54;98519.28;;;5.35;100.00
78590;BME280;67888;50.228;7.828;2024-03-23T18:30:57;98519.28;;;5.09;100.00
78590;BME280;67888;50.228;7.828;2024-03-23T18:35:58;98523.06;;;4.91;100.00
78590;BME280;67888;50.228;7.828;2024-03-23T18:41:00;98543.06;;;4.85;100.00
78590;BME280;67888;50.228;7.828;2024-03-23T18:46:00;98548.25;;;4.80;100.00
78590;BME280;67888;50.228;7.828;2024-03-23T18:51:04;98545.50;;;4.70;100.00
78590;BME280;67888;50.228;7.828;2024-03-23T18:56:05;98539.94;;;4.61;100.00
78590;BME280;67888;50.228;7.828;2024-03-23T19:01:06;98540.69;;;4.84;100.00
78590;BME280;67888;50.228;7.828;2024-03-23T19:06:07;98535.31;;;5.17;100.00
78590;BME280;67888;50.228;7.828;2024-03-23T19:11:07;98533.81;;;4.99;100.00
78590;BME280;67888;50.228;7.828;2024-03-23T19:16:09;98532.00;;;5.00;100.00
78590;BME280;67888;50.228;7.828;2024-03-23T19:21:09;98541.00;;;4.87;100.00
78590;BME280;67888;50.228;7.828;2024-03-23T19:26:10;98530.91;;;4.69;100.00
78590;BME280;67888;50.228;7.828;2024-03-23T19:31:10;98527.97;;;4.17;100.00
78590;BME280;67888;50.228;7.828;2024-03-23T19:36:11;98524.00;;;4.14;100.00
78590;BME280;67888;50.228;7.828;2024-03-23T19:41:12;98523.78;;;4.16;100.00
78590;BME280;67888;50.228;7.828;2024-03-23T19:46:13;98507.41;;;4.20;100.00
78590;BME280;67888;50.228;7.828;2024-03-23T19:51:13;98508.44;;;4.19;100.00
78590;BME280;67888;50.228;7.828;2024-03-23T19:56:14;98497.75;;;4.16;100.00
78590;BME280;67888;50.228;7.828;2024-03-23T20:01:16;98485.44;;;4.33;100.00
78590;BME280;67888;50.228;7.828;2024-03-23T20:06:17;98487.22;;;4.27;100.00
78590;BME280;67888;50.228;7.828;2024-03-23T20:11:24;98485.00;;;4.19;100.00
78590;BME280;67888;50.228;7.828;2024-03-23T20:16:25;98490.97;;;4.15;100.00
78590;BME280;67888;50.228;7.828;2024-03-23T20:21:26;98485.69;;;4.10;100.00
78590;BME280;67888;50.228;7.828;2024-03-23T20:26:27;98495.06;;;3.89;100.00
78590;BME280;67888;50.228;7.828;2024-03-23T20:31:28;98492.25;;;3.57;100.00
78590;BME280;67888;50.228;7.828;2024-03-23T20:36:29;98491.81;;;3.82;100.00
78590;BME280;67888;50.228;7.828;2024-03-23T20:41:30;98494.50;;;4.09;100.00
78590;BME280;67888;50.228;7.828;2024-03-23T20:46:31;98488.59;;;4.13;100.00
78590;BME280;67888;50.228;7.828;2024-03-23T20:51:32;98492.38;;;4.06;100.00
78590;BME280;67888;50.228;7.828;2024-03-23T20:56:32;98495.53;;;4.08;100.00
78590;BME280;67888;50.228;7.828;2024-03-23T21:01:33;98501.28;;;3.88;100.00
78590;BME280;67888;50.228;7.828;2024-03-23T21:06:35;98504.19;;;3.91;100.00
78590;BME280;67888;50.228;7.828;2024-03-23T21:11:36;98500.06;;;3.95;100.00
78590;BME280;67888;50.228;7.828;2024-03-23T21:16:36;98484.06;;;4.04;100.00
78590;BME280;67888;50.228;7.828;2024-03-23T21:21:37;98479.88;;;4.03;100.00
78590;BME280;67888;50.228;7.828;2024-03-23T21:26:38;98472.84;;;4.25;100.00
78590;BME280;67888;50.228;7.828;2024-03-23T21:31:38;98459.66;;;4.10;100.00
78590;BME280;67888;50.228;7.828;2024-03-23T21:36:39;98465.88;;;4.09;100.00
78590;BME280;67888;50.228;7.828;2024-03-23T21:41:40;98446.94;;;3.91;100.00
78590;BME280;67888;50.228;7.828;2024-03-23T21:46:41;98446.53;;;3.61;100.00
78590;BME280;67888;50.228;7.828;2024-03-23T21:51:42;98440.41;;;3.50;100.00
78590;BME280;67888;50.228;7.828;2024-03-23T21:56:47;98441.34;;;3.61;100.00
78590;BME280;67888;50.228;7.828;2024-03-23T22:01:52;98432.84;;;3.49;100.00
78590;BME280;67888;50.228;7.828;2024-03-23T22:06:54;98425.84;;;3.71;100.00
78590;BME280;67888;50.228;7.828;2024-03-23T22:11:55;98424.00;;;3.67;100.00
78590;BME280;67888;50.228;7.828;2024-03-23T22:16:57;98420.25;;;4.01;100.00
78590;BME280;67888;50.228;7.828;2024-03-23T22:21:57;98414.06;;;3.85;100.00
78590;BME280;67888;50.228;7.828;2024-03-23T22:26:58;98395.53;;;3.82;100.00
78590;BME280;67888;50.228;7.828;2024-03-23T22:31:58;98405.31;;;3.91;100.00
78590;BME280;67888;50.228;7.828;2024-03-23T22:36:59;98405.41;;;4.02;100.00
78590;BME280;67888;50.228;7.828;2024-03-23T22:41:59;98404.47;;;4.35;100.00
78590;BME280;67888;50.228;7.828;2024-03-23T22:47:00;98402.41;;;4.63;100.00
78590;BME280;67888;50.228;7.828;2024-03-23T22:52:00;98404.94;;;4.58;100.00
78590;BME280;67888;50.228;7.828;2024-03-23T22:57:01;98397.09;;;4.53;100.00
78590;BME280;67888;50.228;7.828;2024-03-23T23:02:01;98389.84;;;4.55;100.00
78590;BME280;67888;50.228;7.828;2024-03-23T23:07:02;98389.47;;;4.47;100.00
78590;BME280;67888;50.228;7.828;2024-03-23T23:12:05;98378.13;;;4.58;100.00
78590;BME280;67888;50.228;7.828;2024-03-23T23:17:05;98380.47;;;4.59;100.00
78590;BME280;67888;50.228;7.828;2024-03-23T23:22:06;98381.66;;;4.47;100.00
78590;BME280;67888;50.228;7.828;2024-03-23T23:27:06;98374.09;;;4.45;100.00
78590;BME280;67888;50.228;7.828;2024-03-23T23:32:07;98370.00;;;4.81;100.00
78590;BME280;67888;50.228;7.828;2024-03-23T23:37:07;98369.56;;;4.62;100.00
78590;BME280;67888;50.228;7.828;2024-03-23T23:42:08;98370.78;;;4.87;100.00
78590;BME280;67888;50.228;7.828;2024-03-23T23:47:08;98360.78;;;5.06;100.00
78590;BME280;67888;50.228;7.828;2024-03-23T23:52:09;98362.19;;;5.23;100.00
78590;BME280;67888;50.228;7.828;2024-03-23T23:57:10;98356.16;;;5.23;100.00
